sensor_id;sensor_type;location;lat;lon;timestamp;P1;durP1;ratioP1;P2;durP2;ratioP2
47519;SDS011;33252;48.122;11.538;2022-08-16T00:00:17;3.70;;;1.77;;
47519;SDS011;33252;48.122;11.538;2022-08-16T00:02:45;3.80;;;1.27;;
47519;SDS011;33252;48.122;11.538;2022-08-16T00:05:11;1.80;;;1.60;;
47519;SDS011;33252;48.122;11.538;2022-08-16T00:07:38;4.25;;;1.92;;
47519;SDS011;33252;48.122;11.538;2022-08-16T00:10:06;2.65;;;1.83;;
47519;SDS011;33252;48.122;11.538;2022-08-16T00:12:33;1.60;;;1.30;;
47519;SDS011;33252;48.122;11.538;2022-08-16T00:15:00;3.38;;;1.75;;
47519;SDS011;33252;48.122;11.538;2022-08-16T00:17:30;2.00;;;1.60;;
47519;SDS011;33252;48.122;11.538;2022-08-16T00:19:55;1.95;;;1.67;;
47519;SDS011;33252;48.122;11.538;2022-08-16T00:22:24;3.53;;;1.52;;
47519;SDS011;33252;48.122;11.538;2022-08-16T00:24:50;1.90;;;1.58;;
47519;SDS011;33252;48.122;11.538;2022-08-16T00:27:17;2.25;;;1.67;;
47519;SDS011;33252;48.122;11.538;2022-08-16T00:29:43;6.55;;;2.00;;
47519;SDS011;33252;48.122;11.538;2022-08-16T00:32:08;3.33;;;1.88;;
47519;SDS011;33252;48.122;11.538;2022-08-16T00:34:35;2.85;;;1.63;;
47519;SDS011;33252;48.122;11.538;2022-08-16T00:37:01;2.78;;;1.40;;
47519;SDS011;33252;48.122;11.538;2022-08-16T00:39:27;2.10;;;1.45;;
47519;SDS011;33252;48.122;11.538;2022-08-16T00:41:53;3.25;;;1.63;;
47519;SDS011;33252;48.122;11.538;2022-08-16T00:44:19;2.17;;;1.73;;
47519;SDS011;33252;48.122;11.538;2022-08-16T00:47:03;1.98;;;1.70;;
47519;SDS011;33252;48.122;11.538;2022-08-16T00:49:32;2.10;;;1.73;;
47519;SDS011;33252;48.122;11.538;2022-08-16T00:51:59;1.92;;;1.67;;
47519;SDS011;33252;48.122;11.538;2022-08-16T00:54:26;1.92;;;1.50;;
47519;SDS011;33252;48.122;11.538;2022-08-16T00:56:53;3.78;;;1.98;;
47519;SDS011;33252;48.122;11.538;2022-08-16T00:59:21;3.00;;;1.45;;
47519;SDS011;33252;48.122;11.538;2022-08-16T01:01:48;1.55;;;1.45;;
47519;SDS011;33252;48.122;11.538;2022-08-16T01:04:16;3.92;;;1.73;;
47519;SDS011;33252;48.122;11.538;2022-08-16T01:06:44;3.20;;;1.23;;
47519;SDS011;33252;48.122;11.538;2022-08-16T01:09:10;2.40;;;1.50;;
47519;SDS011;33252;48.122;11.538;2022-08-16T01:11:36;2.83;;;1.65;;
47519;SDS011;33252;48.122;11.538;2022-08-16T01:17:10;3.47;;;2.15;;
47519;SDS011;33252;48.122;11.538;2022-08-16T01:19:39;1.95;;;1.70;;
47519;SDS011;33252;48.122;11.538;2022-08-16T01:22:49;1.83;;;1.55;;
47519;SDS011;33252;48.122;11.538;2022-08-16T01:25:10;2.30;;;1.60;;
47519;SDS011;33252;48.122;11.538;2022-08-16T01:27:41;2.55;;;1.58;;
47519;SDS011;33252;48.122;11.538;2022-08-16T01:30:14;2.47;;;1.33;;
47519;SDS011;33252;48.122;11.538;2022-08-16T01:32:53;1.63;;;1.45;;
47519;SDS011;33252;48.122;11.538;2022-08-16T01:35:22;3.88;;;1.52;;
47519;SDS011;33252;48.122;11.538;2022-08-16T01:37:53;2.63;;;1.77;;
47519;SDS011;33252;48.122;11.538;2022-08-16T01:40:22;2.97;;;1.75;;
47519;SDS011;33252;48.122;11.538;2022-08-16T01:42:52;1.93;;;1.33;;
47519;SDS011;33252;48.122;11.538;2022-08-16T01:45:20;2.17;;;1.58;;
47519;SDS011;33252;48.122;11.538;2022-08-16T01:47:47;2.05;;;1.45;;
47519;SDS011;33252;48.122;11.538;2022-08-16T01:50:15;1.88;;;1.40;;
47519;SDS011;33252;48.122;11.538;2022-08-16T01:52:41;2.08;;;1.70;;
47519;SDS011;33252;48.122;11.538;2022-08-16T01:55:08;2.13;;;1.10;;
47519;SDS011;33252;48.122;11.538;2022-08-16T01:57:34;3.75;;;1.30;;
47519;SDS011;33252;48.122;11.538;2022-08-16T02:00:00;1.38;;;1.17;;
47519;SDS011;33252;48.122;11.538;2022-08-16T02:02:29;2.38;;;1.45;;
47519;SDS011;33252;48.122;11.538;2022-08-16T02:04:55;2.58;;;1.30;;
47519;SDS011;33252;48.122;11.538;2022-08-16T02:07:24;1.45;;;1.23;;
47519;SDS011;33252;48.122;11.538;2022-08-16T02:09:49;1.50;;;1.17;;
47519;SDS011;33252;48.122;11.538;2022-08-16T02:12:16;4.10;;;1.35;;
47519;SDS011;33252;48.122;11.538;2022-08-16T02:14:42;1.30;;;1.20;;
47519;SDS011;33252;48.122;11.538;2022-08-16T02:17:09;2.97;;;1.65;;
47519;SDS011;33252;48.122;11.538;2022-08-16T02:19:38;2.40;;;1.58;;
47519;SDS011;33252;48.122;11.538;2022-08-16T02:22:06;1.52;;;1.23;;
47519;SDS011;33252;48.122;11.538;2022-08-16T02:24:35;1.77;;;1.00;;
47519;SDS011;33252;48.122;11.538;2022-08-16T02:27:02;1.77;;;1.48;;
47519;SDS011;33252;48.122;11.538;2022-08-16T02:29:28;1.35;;;0.98;;
47519;SDS011;33252;48.122;11.538;2022-08-16T02:31:53;3.63;;;1.40;;
47519;SDS011;33252;48.122;11.538;2022-08-16T02:34:20;3.33;;;1.17;;
47519;SDS011;33252;48.122;11.538;2022-08-16T02:36:46;1.40;;;1.13;;
47519;SDS011;33252;48.122;11.538;2022-08-16T02:39:13;1.80;;;1.30;;
47519;SDS011;33252;48.122;11.538;2022-08-16T02:41:40;1.60;;;1.10;;
47519;SDS011;33252;48.122;11.538;2022-08-16T02:44:07;1.60;;;1.20;;
47519;SDS011;33252;48.122;11.538;2022-08-16T02:46:35;2.47;;;1.55;;
47519;SDS011;33252;48.122;11.538;2022-08-16T02:49:02;1.63;;;1.17;;
47519;SDS011;33252;48.122;11.538;2022-08-16T02:51:29;1.40;;;1.23;;
47519;SDS011;33252;48.122;11.538;2022-08-16T02:53:55;2.78;;;1.17;;
47519;SDS011;33252;48.122;11.538;2022-08-16T02:56:21;1.90;;;1.38;;
47519;SDS011;33252;48.122;11.538;2022-08-16T02:58:47;3.38;;;1.50;;
47519;SDS011;33252;48.122;11.538;2022-08-16T03:01:16;2.65;;;1.10;;
47519;SDS011;33252;48.122;11.538;2022-08-16T03:03:45;2.50;;;1.20;;
47519;SDS011;33252;48.122;11.538;2022-08-16T03:06:11;1.33;;;1.05;;
47519;SDS011;33252;48.122;11.538;2022-08-16T03:08:38;1.55;;;1.23;;
47519;SDS011;33252;48.122;11.538;2022-08-16T03:11:04;1.90;;;1.30;;
47519;SDS011;33252;48.122;11.538;2022-08-16T03:13:30;2.10;;;1.05;;
47519;SDS011;33252;48.122;11.538;2022-08-16T03:15:56;1.98;;;1.23;;
47519;SDS011;33252;48.122;11.538;2022-08-16T03:18:22;2.35;;;1.50;;
47519;SDS011;33252;48.122;11.538;2022-08-16T03:20:48;1.42;;;0.98;;
47519;SDS011;33252;48.122;11.538;2022-08-16T03:23:13;2.10;;;1.42;;
47519;SDS011;33252;48.122;11.538;2022-08-16T03:25:39;2.08;;;1.67;;
47519;SDS011;33252;48.122;11.538;2022-08-16T03:28:05;2.08;;;1.58;;
47519;SDS011;33252;48.122;11.538;2022-08-16T03:30:33;2.67;;;1.52;;
47519;SDS011;33252;48.122;11.538;2022-08-16T03:32:59;1.63;;;1.20;;
47519;SDS011;33252;48.122;11.538;2022-08-16T03:35:27;1.65;;;1.27;;
47519;SDS011;33252;48.122;11.538;2022-08-16T03:37:55;1.70;;;1.35;;
47519;SDS011;33252;48.122;11.538;2022-08-16T03:40:23;1.77;;;1.35;;
47519;SDS011;33252;48.122;11.538;2022-08-16T03:42:50;1.55;;;1.35;;
47519;SDS011;33252;48.122;11.538;2022-08-16T03:45:16;2.22;;;1.00;;
47519;SDS011;33252;48.122;11.538;2022-08-16T03:47:44;2.50;;;1.20;;
47519;SDS011;33252;48.122;11.538;2022-08-16T03:50:11;3.30;;;1.00;;
47519;SDS011;33252;48.122;11.538;2022-08-16T03:52:38;2.67;;;1.48;;
47519;SDS011;33252;48.122;11.538;2022-08-16T03:55:05;2.03;;;1.20;;
47519;SDS011;33252;48.122;11.538;2022-08-16T03:57:32;1.77;;;1.25;;
47519;SDS011;33252;48.122;11.538;2022-08-16T03:59:57;3.00;;;1.70;;
47519;SDS011;33252;48.122;11.538;2022-08-16T04:02:23;1.88;;;1.67;;
47519;SDS011;33252;48.122;11.538;2022-08-16T04:04:49;2.15;;;1.58;;
47519;SDS011;33252;48.122;11.538;2022-08-16T04:07:16;2.60;;;1.88;;
47519;SDS011;33252;48.122;11.538;2022-08-16T04:09:41;2.22;;;1.67;;
47519;SDS011;33252;48.122;11.538;2022-08-16T04:12:08;3.67;;;1.60;;
47519;SDS011;33252;48.122;11.538;2022-08-16T04:14:35;3.63;;;1.85;;
47519;SDS011;33252;48.122;11.538;2022-08-16T04:17:01;3.47;;;1.88;;
47519;SDS011;33252;48.122;11.538;2022-08-16T04:19:28;2.30;;;1.40;;
47519;SDS011;33252;48.122;11.538;2022-08-16T04:21:53;4.93;;;1.92;;
47519;SDS011;33252;48.122;11.538;2022-08-16T04:24:19;2.00;;;1.80;;
47519;SDS011;33252;48.122;11.538;2022-08-16T04:26:45;2.83;;;1.73;;
47519;SDS011;33252;48.122;11.538;2022-08-16T04:29:11;3.88;;;1.98;;
47519;SDS011;33252;48.122;11.538;2022-08-16T04:31:37;3.13;;;1.70;;
47519;SDS011;33252;48.122;11.538;2022-08-16T04:34:03;3.72;;;1.67;;
47519;SDS011;33252;48.122;11.538;2022-08-16T04:36:29;2.80;;;2.03;;
47519;SDS011;33252;48.122;11.538;2022-08-16T04:38:54;3.97;;;2.10;;
47519;SDS011;33252;48.122;11.538;2022-08-16T04:41:21;2.40;;;2.20;;
47519;SDS011;33252;48.122;11.538;2022-08-16T04:43:47;3.03;;;2.22;;
47519;SDS011;33252;48.122;11.538;2022-08-16T04:46:13;5.35;;;1.85;;
47519;SDS011;33252;48.122;11.538;2022-08-16T04:48:40;2.90;;;2.22;;
47519;SDS011;33252;48.122;11.538;2022-08-16T04:51:07;2.53;;;2.00;;
47519;SDS011;33252;48.122;11.538;2022-08-16T04:53:33;3.50;;;2.15;;
47519;SDS011;33252;48.122;11.538;2022-08-16T04:55:59;4.38;;;2.08;;
47519;SDS011;33252;48.122;11.538;2022-08-16T04:58:28;3.25;;;1.92;;
47519;SDS011;33252;48.122;11.538;2022-08-16T05:00:55;4.78;;;2.58;;
47519;SDS011;33252;48.122;11.538;2022-08-16T05:03:21;3.83;;;1.92;;
47519;SDS011;33252;48.122;11.538;2022-08-16T05:05:48;2.78;;;2.13;;
47519;SDS011;33252;48.122;11.538;2022-08-16T05:08:14;2.65;;;2.00;;
47519;SDS011;33252;48.122;11.538;2022-08-16T05:10:39;3.88;;;2.05;;
47519;SDS011;33252;48.122;11.538;2022-08-16T05:13:05;3.15;;;1.73;;
47519;SDS011;33252;48.122;11.538;2022-08-16T05:15:32;5.28;;;2.15;;
47519;SDS011;33252;48.122;11.538;2022-08-16T05:17:58;4.63;;;2.88;;
47519;SDS011;33252;48.122;11.538;2022-08-16T05:20:24;2.83;;;2.38;;
47519;SDS011;33252;48.122;11.538;2022-08-16T05:22:51;3.15;;;2.35;;
47519;SDS011;33252;48.122;11.538;2022-08-16T05:25:17;3.78;;;2.17;;
47519;SDS011;33252;48.122;11.538;2022-08-16T05:27:43;3.92;;;2.10;;
47519;SDS011;33252;48.122;11.538;2022-08-16T05:30:10;6.53;;;2.60;;
47519;SDS011;33252;48.122;11.538;2022-08-16T05:32:38;2.97;;;2.25;;
47519;SDS011;33252;48.122;11.538;2022-08-16T05:35:05;5.82;;;2.45;;
47519;SDS011;33252;48.122;11.538;2022-08-16T05:37:33;3.58;;;2.15;;
47519;SDS011;33252;48.122;11.538;2022-08-16T05:40:00;7.50;;;2.10;;
47519;SDS011;33252;48.122;11.538;2022-08-16T05:42:26;3.60;;;2.13;;
47519;SDS011;33252;48.122;11.538;2022-08-16T05:44:52;2.42;;;1.65;;
47519;SDS011;33252;48.122;11.538;2022-08-16T05:47:18;3.00;;;2.67;;
47519;SDS011;33252;48.122;11.538;2022-08-16T05:49:44;4.78;;;2.00;;
47519;SDS011;33252;48.122;11.538;2022-08-16T05:52:09;2.10;;;1.55;;
47519;SDS011;33252;48.122;11.538;2022-08-16T05:54:36;2.72;;;1.98;;
47519;SDS011;33252;48.122;11.538;2022-08-16T05:57:02;4.47;;;2.17;;
47519;SDS011;33252;48.122;11.538;2022-08-16T05:59:29;3.55;;;2.13;;
47519;SDS011;33252;48.122;11.538;2022-08-16T06:01:55;3.08;;;1.90;;
47519;SDS011;33252;48.122;11.538;2022-08-16T06:04:20;3.47;;;2.75;;
47519;SDS011;33252;48.122;11.538;2022-08-16T06:06:46;4.90;;;1.88;;
47519;SDS011;33252;48.122;11.538;2022-08-16T06:09:12;2.80;;;2.20;;
47519;SDS011;33252;48.122;11.538;2022-08-16T06:11:40;4.40;;;2.30;;
47519;SDS011;33252;48.122;11.538;2022-08-16T06:14:07;4.00;;;2.20;;
47519;SDS011;33252;48.122;11.538;2022-08-16T06:16:33;3.42;;;1.88;;
47519;SDS011;33252;48.122;11.538;2022-08-16T06:18:59;3.38;;;2.15;;
47519;SDS011;33252;48.122;11.538;2022-08-16T06:21:25;2.65;;;1.80;;
47519;SDS011;33252;48.122;11.538;2022-08-16T06:23:51;2.65;;;2.20;;
47519;SDS011;33252;48.122;11.538;2022-08-16T06:26:17;3.05;;;1.90;;
47519;SDS011;33252;48.122;11.538;2022-08-16T06:28:43;2.67;;;1.90;;
47519;SDS011;33252;48.122;11.538;2022-08-16T06:31:10;2.33;;;1.70;;
47519;SDS011;33252;48.122;11.538;2022-08-16T06:33:37;3.13;;;2.50;;
47519;SDS011;33252;48.122;11.538;2022-08-16T06:36:02;6.32;;;2.78;;
47519;SDS011;33252;48.122;11.538;2022-08-16T06:38:29;3.58;;;2.05;;
47519;SDS011;33252;48.122;11.538;2022-08-16T06:40:55;3.75;;;1.73;;
47519;SDS011;33252;48.122;11.538;2022-08-16T06:43:20;2.90;;;2.20;;
47519;SDS011;33252;48.122;11.538;2022-08-16T06:45:47;3.22;;;2.03;;
47519;SDS011;33252;48.122;11.538;2022-08-16T06:48:13;5.20;;;2.45;;
47519;SDS011;33252;48.122;11.538;2022-08-16T06:50:39;3.20;;;2.15;;
47519;SDS011;33252;48.122;11.538;2022-08-16T06:53:05;3.25;;;1.75;;
47519;SDS011;33252;48.122;11.538;2022-08-16T06:55:31;3.72;;;1.90;;
47519;SDS011;33252;48.122;11.538;2022-08-16T06:57:59;4.40;;;2.30;;
47519;SDS011;33252;48.122;11.538;2022-08-16T07:00:25;2.90;;;1.90;;
47519;SDS011;33252;48.122;11.538;2022-08-16T07:02:51;2.13;;;1.75;;
47519;SDS011;33252;48.122;11.538;2022-08-16T07:05:17;5.70;;;2.13;;
47519;SDS011;33252;48.122;11.538;2022-08-16T07:07:44;2.67;;;2.00;;
47519;SDS011;33252;48.122;11.538;2022-08-16T07:10:11;6.95;;;2.97;;
47519;SDS011;33252;48.122;11.538;2022-08-16T07:17:48;2.33;;;2.10;;
47519;SDS011;33252;48.122;11.538;2022-08-16T07:20:13;4.72;;;2.20;;
47519;SDS011;33252;48.122;11.538;2022-08-16T07:22:39;3.38;;;2.40;;
47519;SDS011;33252;48.122;11.538;2022-08-16T07:25:07;2.60;;;1.80;;
47519;SDS011;33252;48.122;11.538;2022-08-16T07:27:37;4.00;;;1.98;;
47519;SDS011;33252;48.122;11.538;2022-08-16T07:30:07;2.13;;;1.70;;
47519;SDS011;33252;48.122;11.538;2022-08-16T07:32:35;3.22;;;1.83;;
47519;SDS011;33252;48.122;11.538;2022-08-16T07:35:02;2.53;;;2.03;;
47519;SDS011;33252;48.122;11.538;2022-08-16T07:37:29;6.32;;;2.10;;
47519;SDS011;33252;48.122;11.538;2022-08-16T07:39:54;4.18;;;2.03;;
47519;SDS011;33252;48.122;11.538;2022-08-16T07:42:20;2.30;;;1.90;;
47519;SDS011;33252;48.122;11.538;2022-08-16T07:44:46;3.42;;;2.38;;
47519;SDS011;33252;48.122;11.538;2022-08-16T07:47:12;4.40;;;2.28;;
47519;SDS011;33252;48.122;11.538;2022-08-16T07:49:38;5.07;;;2.30;;
47519;SDS011;33252;48.122;11.538;2022-08-16T07:52:04;2.63;;;2.20;;
47519;SDS011;33252;48.122;11.538;2022-08-16T07:54:30;3.50;;;1.90;;
47519;SDS011;33252;48.122;11.538;2022-08-16T07:56:55;3.00;;;2.05;;
47519;SDS011;33252;48.122;11.538;2022-08-16T07:59:21;2.83;;;1.70;;
47519;SDS011;33252;48.122;11.538;2022-08-16T08:01:48;4.03;;;2.40;;
47519;SDS011;33252;48.122;11.538;2022-08-16T08:04:17;3.35;;;1.80;;
47519;SDS011;33252;48.122;11.538;2022-08-16T08:06:43;2.95;;;2.67;;
47519;SDS011;33252;48.122;11.538;2022-08-16T08:09:09;2.55;;;2.00;;
47519;SDS011;33252;48.122;11.538;2022-08-16T08:11:35;2.35;;;1.73;;
47519;SDS011;33252;48.122;11.538;2022-08-16T08:14:01;5.13;;;2.17;;
47519;SDS011;33252;48.122;11.538;2022-08-16T08:16:27;2.63;;;2.40;;
47519;SDS011;33252;48.122;11.538;2022-08-16T08:18:53;3.17;;;2.42;;
47519;SDS011;33252;48.122;11.538;2022-08-16T08:21:21;3.70;;;2.25;;
47519;SDS011;33252;48.122;11.538;2022-08-16T08:23:49;5.20;;;2.55;;
47519;SDS011;33252;48.122;11.538;2022-08-16T08:26:16;4.32;;;2.70;;
47519;SDS011;33252;48.122;11.538;2022-08-16T08:28:42;3.65;;;2.65;;
47519;SDS011;33252;48.122;11.538;2022-08-16T08:31:08;2.63;;;2.10;;
47519;SDS011;33252;48.122;11.538;2022-08-16T08:33:34;3.35;;;2.38;;
47519;SDS011;33252;48.122;11.538;2022-08-16T08:36:01;3.78;;;2.17;;
47519;SDS011;33252;48.122;11.538;2022-08-16T08:38:31;2.75;;;2.33;;
47519;SDS011;33252;48.122;11.538;2022-08-16T08:40:59;4.22;;;2.63;;
47519;SDS011;33252;48.122;11.538;2022-08-16T08:43:25;3.97;;;2.60;;
47519;SDS011;33252;48.122;11.538;2022-08-16T08:45:51;3.63;;;2.35;;
47519;SDS011;33252;48.122;11.538;2022-08-16T08:48:20;3.80;;;2.22;;
47519;SDS011;33252;48.122;11.538;2022-08-16T08:50:45;5.65;;;2.45;;
47519;SDS011;33252;48.122;11.538;2022-08-16T08:53:12;4.05;;;2.20;;
47519;SDS011;33252;48.122;11.538;2022-08-16T08:55:37;3.35;;;2.45;;
47519;SDS011;33252;48.122;11.538;2022-08-16T08:58:03;5.40;;;2.72;;
47519;SDS011;33252;48.122;11.538;2022-08-16T09:00:29;3.03;;;2.58;;
47519;SDS011;33252;48.122;11.538;2022-08-16T09:02:55;4.95;;;3.03;;
47519;SDS011;33252;48.122;11.538;2022-08-16T09:05:21;4.55;;;2.50;;
47519;SDS011;33252;48.122;11.538;2022-08-16T09:07:52;6.40;;;2.95;;
47519;SDS011;33252;48.122;11.538;2022-08-16T09:10:18;3.38;;;2.28;;
47519;SDS011;33252;48.122;11.538;2022-08-16T09:12:45;3.35;;;2.33;;
47519;SDS011;33252;48.122;11.538;2022-08-16T09:15:12;4.18;;;2.70;;
47519;SDS011;33252;48.122;11.538;2022-08-16T09:17:38;2.50;;;2.05;;
47519;SDS011;33252;48.122;11.538;2022-08-16T09:20:05;3.53;;;2.15;;
47519;SDS011;33252;48.122;11.538;2022-08-16T09:22:31;2.47;;;2.20;;
47519;SDS011;33252;48.122;11.538;2022-08-16T09:24:58;4.43;;;2.75;;
47519;SDS011;33252;48.122;11.538;2022-08-16T09:27:23;5.65;;;3.22;;
47519;SDS011;33252;48.122;11.538;2022-08-16T09:29:50;2.55;;;2.35;;
47519;SDS011;33252;48.122;11.538;2022-08-16T09:32:17;4.15;;;2.92;;
47519;SDS011;33252;48.122;11.538;2022-08-16T09:34:43;4.38;;;2.42;;
47519;SDS011;33252;48.122;11.538;2022-08-16T09:37:09;3.33;;;3.00;;
47519;SDS011;33252;48.122;11.538;2022-08-16T09:39:34;4.90;;;2.80;;
47519;SDS011;33252;48.122;11.538;2022-08-16T09:42:00;4.05;;;2.60;;
47519;SDS011;33252;48.122;11.538;2022-08-16T09:44:27;5.28;;;3.40;;
47519;SDS011;33252;48.122;11.538;2022-08-16T09:46:53;3.28;;;2.42;;
47519;SDS011;33252;48.122;11.538;2022-08-16T09:49:20;3.50;;;2.53;;
47519;SDS011;33252;48.122;11.538;2022-08-16T09:51:47;3.03;;;2.70;;
47519;SDS011;33252;48.122;11.538;2022-08-16T09:54:20;3.83;;;3.03;;
47519;SDS011;33252;48.122;11.538;2022-08-16T09:56:47;3.85;;;3.20;;
47519;SDS011;33252;48.122;11.538;2022-08-16T09:59:14;4.97;;;2.65;;
47519;SDS011;33252;48.122;11.538;2022-08-16T10:01:40;4.25;;;2.67;;
47519;SDS011;33252;48.122;11.538;2022-08-16T10:04:08;4.90;;;2.75;;
47519;SDS011;33252;48.122;11.538;2022-08-16T10:06:36;3.10;;;2.80;;
47519;SDS011;33252;48.122;11.538;2022-08-16T10:09:06;3.13;;;2.55;;
47519;SDS011;33252;48.122;11.538;2022-08-16T10:11:33;3.63;;;3.22;;
47519;SDS011;33252;48.122;11.538;2022-08-16T10:14:18;6.43;;;2.80;;
47519;SDS011;33252;48.122;11.538;2022-08-16T10:16:44;3.70;;;2.60;;
47519;SDS011;33252;48.122;11.538;2022-08-16T10:19:10;2.83;;;2.63;;
47519;SDS011;33252;48.122;11.538;2022-08-16T10:21:37;5.57;;;2.92;;
47519;SDS011;33252;48.122;11.538;2022-08-16T10:24:03;3.95;;;3.10;;
47519;SDS011;33252;48.122;11.538;2022-08-16T10:26:30;2.63;;;2.42;;
47519;SDS011;33252;48.122;11.538;2022-08-16T10:28:58;4.15;;;2.88;;
47519;SDS011;33252;48.122;11.538;2022-08-16T10:31:24;4.15;;;2.78;;
47519;SDS011;33252;48.122;11.538;2022-08-16T10:33:50;3.28;;;2.97;;
47519;SDS011;33252;48.122;11.538;2022-08-16T10:36:16;3.80;;;3.03;;
47519;SDS011;33252;48.122;11.538;2022-08-16T10:38:41;2.88;;;2.58;;
47519;SDS011;33252;48.122;11.538;2022-08-16T10:41:08;3.95;;;3.00;;
47519;SDS011;33252;48.122;11.538;2022-08-16T10:43:35;2.75;;;2.55;;
47519;SDS011;33252;48.122;11.538;2022-08-16T10:46:03;4.72;;;2.88;;
47519;SDS011;33252;48.122;11.538;2022-08-16T10:48:30;4.07;;;2.78;;
47519;SDS011;33252;48.122;11.538;2022-08-16T10:50:56;5.13;;;3.20;;
47519;SDS011;33252;48.122;11.538;2022-08-16T10:53:23;3.70;;;2.70;;
47519;SDS011;33252;48.122;11.538;2022-08-16T10:55:51;3.97;;;2.85;;
47519;SDS011;33252;48.122;11.538;2022-08-16T10:58:17;4.93;;;2.88;;
47519;SDS011;33252;48.122;11.538;2022-08-16T11:00:43;3.05;;;2.72;;
47519;SDS011;33252;48.122;11.538;2022-08-16T11:03:10;2.95;;;2.75;;
47519;SDS011;33252;48.122;11.538;2022-08-16T11:05:38;3.83;;;2.80;;
47519;SDS011;33252;48.122;11.538;2022-08-16T11:08:05;5.35;;;2.88;;
47519;SDS011;33252;48.122;11.538;2022-08-16T11:10:34;3.50;;;3.20;;
47519;SDS011;33252;48.122;11.538;2022-08-16T11:13:01;3.97;;;2.38;;
47519;SDS011;33252;48.122;11.538;2022-08-16T11:15:28;2.85;;;2.63;;
47519;SDS011;33252;48.122;11.538;2022-08-16T11:17:54;4.72;;;2.95;;
47519;SDS011;33252;48.122;11.538;2022-08-16T11:20:20;6.40;;;5.80;;
47519;SDS011;33252;48.122;11.538;2022-08-16T11:22:46;5.57;;;4.20;;
47519;SDS011;33252;48.122;11.538;2022-08-16T11:25:14;9.20;;;4.70;;
47519;SDS011;33252;48.122;11.538;2022-08-16T11:27:42;7.43;;;3.00;;
47519;SDS011;33252;48.122;11.538;2022-08-16T11:30:09;2.58;;;2.13;;
47519;SDS011;33252;48.122;11.538;2022-08-16T11:32:37;5.45;;;2.63;;
47519;SDS011;33252;48.122;11.538;2022-08-16T11:35:04;3.80;;;2.38;;
47519;SDS011;33252;48.122;11.538;2022-08-16T11:37:34;4.93;;;2.55;;
47519;SDS011;33252;48.122;11.538;2022-08-16T11:40:01;2.85;;;2.50;;
47519;SDS011;33252;48.122;11.538;2022-08-16T11:42:27;3.05;;;2.75;;
47519;SDS011;33252;48.122;11.538;2022-08-16T11:44:54;3.08;;;2.78;;
47519;SDS011;33252;48.122;11.538;2022-08-16T11:47:20;5.10;;;2.13;;
47519;SDS011;33252;48.122;11.538;2022-08-16T11:49:45;3.90;;;2.83;;
47519;SDS011;33252;48.122;11.538;2022-08-16T11:52:11;4.53;;;2.65;;
47519;SDS011;33252;48.122;11.538;2022-08-16T11:54:37;3.72;;;2.10;;
47519;SDS011;33252;48.122;11.538;2022-08-16T11:57:04;2.70;;;2.50;;
47519;SDS011;33252;48.122;11.538;2022-08-16T11:59:30;4.82;;;3.00;;
47519;SDS011;33252;48.122;11.538;2022-08-16T12:01:56;4.65;;;2.33;;
47519;SDS011;33252;48.122;11.538;2022-08-16T12:04:22;2.58;;;2.15;;
47519;SDS011;33252;48.122;11.538;2022-08-16T12:06:49;3.13;;;2.30;;
47519;SDS011;33252;48.122;11.538;2022-08-16T12:09:15;2.80;;;2.35;;
47519;SDS011;33252;48.122;11.538;2022-08-16T12:11:41;2.92;;;2.33;;
47519;SDS011;33252;48.122;11.538;2022-08-16T12:14:07;4.57;;;2.45;;
47519;SDS011;33252;48.122;11.538;2022-08-16T12:16:33;4.03;;;2.40;;
47519;SDS011;33252;48.122;11.538;2022-08-16T12:19:01;3.25;;;2.35;;
47519;SDS011;33252;48.122;11.538;2022-08-16T12:21:29;4.43;;;2.53;;
47519;SDS011;33252;48.122;11.538;2022-08-16T12:23:55;3.33;;;2.28;;
47519;SDS011;33252;48.122;11.538;2022-08-16T12:26:23;3.17;;;2.15;;
47519;SDS011;33252;48.122;11.538;2022-08-16T12:28:49;3.65;;;2.00;;
47519;SDS011;33252;48.122;11.538;2022-08-16T12:31:17;2.47;;;2.28;;
47519;SDS011;33252;48.122;11.538;2022-08-16T12:33:43;2.40;;;2.20;;
47519;SDS011;33252;48.122;11.538;2022-08-16T12:36:09;2.67;;;2.38;;
47519;SDS011;33252;48.122;11.538;2022-08-16T12:38:35;3.83;;;2.47;;
47519;SDS011;33252;48.122;11.538;2022-08-16T12:41:01;3.70;;;2.45;;
47519;SDS011;33252;48.122;11.538;2022-08-16T12:43:28;3.63;;;2.65;;
47519;SDS011;33252;48.122;11.538;2022-08-16T12:45:55;3.30;;;2.38;;
47519;SDS011;33252;48.122;11.538;2022-08-16T12:48:23;4.05;;;2.00;;
47519;SDS011;33252;48.122;11.538;2022-08-16T12:51:12;3.03;;;2.03;;
47519;SDS011;33252;48.122;11.538;2022-08-16T12:53:39;3.03;;;1.95;;
47519;SDS011;33252;48.122;11.538;2022-08-16T12:56:06;6.07;;;2.13;;
47519;SDS011;33252;48.122;11.538;2022-08-16T12:58:31;4.70;;;2.40;;
47519;SDS011;33252;48.122;11.538;2022-08-16T13:00:58;2.60;;;2.28;;
47519;SDS011;33252;48.122;11.538;2022-08-16T13:03:25;3.13;;;2.50;;
47519;SDS011;33252;48.122;11.538;2022-08-16T13:05:52;4.72;;;2.30;;
47519;SDS011;33252;48.122;11.538;2022-08-16T13:08:18;2.33;;;2.13;;
47519;SDS011;33252;48.122;11.538;2022-08-16T13:10:47;2.97;;;2.30;;
47519;SDS011;33252;48.122;11.538;2022-08-16T13:13:15;3.60;;;2.70;;
47519;SDS011;33252;48.122;11.538;2022-08-16T13:15:49;3.05;;;2.22;;
47519;SDS011;33252;48.122;11.538;2022-08-16T13:18:16;5.65;;;2.00;;
47519;SDS011;33252;48.122;11.538;2022-08-16T13:20:42;3.17;;;2.33;;
47519;SDS011;33252;48.122;11.538;2022-08-16T13:23:08;2.58;;;2.38;;
47519;SDS011;33252;48.122;11.538;2022-08-16T13:25:36;2.95;;;2.65;;
47519;SDS011;33252;48.122;11.538;2022-08-16T13:28:03;2.63;;;2.17;;
47519;SDS011;33252;48.122;11.538;2022-08-16T13:30:29;3.47;;;3.22;;
47519;SDS011;33252;48.122;11.538;2022-08-16T13:33:01;2.63;;;2.38;;
47519;SDS011;33252;48.122;11.538;2022-08-16T13:35:27;2.67;;;1.92;;
47519;SDS011;33252;48.122;11.538;2022-08-16T13:37:53;3.63;;;2.47;;
47519;SDS011;33252;48.122;11.538;2022-08-16T13:40:19;2.05;;;1.88;;
47519;SDS011;33252;48.122;11.538;2022-08-16T13:42:45;3.58;;;1.60;;
47519;SDS011;33252;48.122;11.538;2022-08-16T13:45:14;2.40;;;1.83;;
47519;SDS011;33252;48.122;11.538;2022-08-16T13:47:40;2.20;;;2.00;;
47519;SDS011;33252;48.122;11.538;2022-08-16T13:50:06;1.95;;;1.77;;
47519;SDS011;33252;48.122;11.538;2022-08-16T13:52:33;3.03;;;2.13;;
47519;SDS011;33252;48.122;11.538;2022-08-16T13:54:59;2.72;;;2.25;;
47519;SDS011;33252;48.122;11.538;2022-08-16T13:57:25;2.33;;;1.85;;
47519;SDS011;33252;48.122;11.538;2022-08-16T13:59:50;2.53;;;1.98;;
47519;SDS011;33252;48.122;11.538;2022-08-16T14:02:16;1.80;;;1.70;;
47519;SDS011;33252;48.122;11.538;2022-08-16T14:04:42;2.67;;;1.90;;
47519;SDS011;33252;48.122;11.538;2022-08-16T14:07:09;2.33;;;2.10;;
47519;SDS011;33252;48.122;11.538;2022-08-16T14:09:37;3.58;;;2.28;;
47519;SDS011;33252;48.122;11.538;2022-08-16T14:12:12;3.78;;;2.17;;
47519;SDS011;33252;48.122;11.538;2022-08-16T14:14:44;3.75;;;1.85;;
47519;SDS011;33252;48.122;11.538;2022-08-16T14:17:10;2.20;;;1.98;;
47519;SDS011;33252;48.122;11.538;2022-08-16T14:19:36;2.65;;;1.92;;
47519;SDS011;33252;48.122;11.538;2022-08-16T14:22:02;3.90;;;2.42;;
47519;SDS011;33252;48.122;11.538;2022-08-16T14:24:27;2.30;;;1.92;;
47519;SDS011;33252;48.122;11.538;2022-08-16T14:26:53;3.47;;;2.15;;
47519;SDS011;33252;48.122;11.538;2022-08-16T14:29:19;3.92;;;2.30;;
47519;SDS011;33252;48.122;11.538;2022-08-16T14:31:45;2.85;;;2.10;;
47519;SDS011;33252;48.122;11.538;2022-08-16T14:34:10;3.45;;;1.92;;
47519;SDS011;33252;48.122;11.538;2022-08-16T14:36:36;3.33;;;2.00;;
47519;SDS011;33252;48.122;11.538;2022-08-16T14:39:02;2.85;;;1.90;;